createdAt,value
2023-03-30T00:00:23.421Z,2.33
2023-03-30T00:02:53.832Z,2.27
2023-03-30T00:05:23.900Z,2.53
2023-03-30T00:07:53.569Z,2.67
2023-03-30T00:10:22.208Z,2.40
2023-03-30T00:12:52.744Z,2.43
2023-03-30T00:15:21.976Z,2.50
2023-03-30T00:17:50.368Z,2.60
2023-03-30T00:20:19.445Z,2.20
2023-03-30T00:22:48.173Z,2.67
2023-03-30T00:25:18.431Z,2.50
2023-03-30T00:27:47.199Z,2.60
2023-03-30T00:30:16.264Z,2.50
2023-03-30T00:32:44.635Z,2.30
2023-03-30T00:35:13.351Z,2.33
2023-03-30T00:37:45.643Z,2.50
2023-03-30T00:40:16.759Z,2.20
2023-03-30T00:42:47.086Z,2.47
2023-03-30T00:45:23.028Z,2.30
2023-03-30T00:47:53.641Z,2.40
2023-03-30T00:50:23.674Z,2.27
2023-03-30T00:52:53.222Z,2.00
2023-03-30T00:55:22.508Z,2.43
2023-03-30T00:57:53.390Z,1.70
2023-03-30T01:00:23.983Z,2.17
2023-03-30T01:02:55.941Z,2.13
2023-03-30T01:05:25.164Z,2.17
2023-03-30T01:07:53.327Z,2.23
2023-03-30T01:10:22.105Z,2.60
2023-03-30T01:12:51.876Z,2.13
2023-03-30T01:15:20.512Z,2.20
2023-03-30T01:17:55.836Z,2.10
2023-03-30T01:20:35.325Z,2.20
2023-03-30T01:23:13.039Z,2.20
2023-03-30T01:25:56.328Z,2.20
2023-03-30T01:28:32.945Z,1.97
2023-03-30T01:31:27.954Z,2.40
2023-03-30T01:34:11.502Z,3.23
2023-03-30T01:37:04.625Z,2.10
2023-03-30T01:39:41.646Z,2.00
2023-03-30T01:42:16.108Z,2.30
2023-03-30T01:44:46.181Z,2.40
2023-03-30T01:47:17.964Z,2.30
2023-03-30T01:49:48.876Z,2.07
2023-03-30T01:52:19.686Z,2.63
2023-03-30T01:54:50.137Z,2.20
2023-03-30T01:57:20.762Z,2.63
2023-03-30T01:59:53.237Z,2.30
2023-03-30T02:02:23.885Z,2.40
2023-03-30T02:04:54.589Z,2.10
2023-03-30T02:07:24.617Z,2.37
2023-03-30T02:09:55.460Z,2.50
2023-03-30T02:12:24.125Z,2.00
2023-03-30T02:14:53.445Z,2.10
2023-03-30T02:17:24.524Z,2.30
2023-03-30T02:19:54.599Z,2.23
2023-03-30T02:22:23.728Z,2.23
2023-03-30T02:24:54.876Z,2.27
2023-03-30T02:27:25.166Z,2.40
2023-03-30T02:29:54.550Z,1.80
2023-03-30T02:32:23.853Z,2.10
2023-03-30T02:34:58.900Z,2.13
2023-03-30T02:37:35.029Z,2.07
2023-03-30T02:40:13.430Z,1.90
2023-03-30T02:42:51.880Z,1.80
2023-03-30T02:45:24.918Z,2.23
2023-03-30T02:48:00.037Z,1.87
2023-03-30T02:50:32.429Z,2.20
2023-03-30T02:53:03.410Z,2.10
2023-03-30T02:55:35.542Z,2.20
2023-03-30T02:58:08.065Z,2.23
2023-03-30T03:00:39.670Z,2.30
2023-03-30T03:03:11.095Z,1.70
2023-03-30T03:05:39.405Z,1.60
2023-03-30T03:08:07.705Z,1.70
2023-03-30T03:10:36.864Z,2.10
2023-03-30T03:13:08.220Z,1.90
2023-03-30T03:15:37.890Z,1.90
2023-03-30T03:18:06.294Z,1.80
2023-03-30T03:20:34.779Z,1.80
2023-03-30T03:23:02.952Z,1.70
2023-03-30T03:25:31.174Z,2.00
2023-03-30T03:27:59.377Z,2.10
2023-03-30T03:30:28.944Z,2.17
2023-03-30T03:32:57.208Z,2.30
2023-03-30T03:35:27.226Z,2.33
2023-03-30T03:37:55.459Z,2.37
2023-03-30T03:40:23.616Z,2.57
2023-03-30T03:42:51.868Z,1.97
2023-03-30T03:45:19.991Z,2.30
2023-03-30T03:47:51.873Z,3.07
2023-03-30T03:50:20.101Z,2.37
2023-03-30T03:52:48.268Z,2.53
2023-03-30T03:55:16.525Z,2.43
2023-03-30T03:57:45.748Z,2.03
2023-03-30T04:00:17.372Z,2.67
2023-03-30T04:02:46.100Z,2.40
2023-03-30T04:05:15.892Z,3.27
2023-03-30T04:07:46.262Z,3.03
2023-03-30T04:10:15.045Z,3.70
2023-03-30T04:12:43.214Z,3.50
2023-03-30T04:15:11.742Z,4.40
2023-03-30T04:17:40.147Z,4.53
2023-03-30T04:20:11.569Z,4.93
2023-03-30T04:22:42.612Z,5.87
2023-03-30T04:25:11.537Z,6.33
2023-03-30T04:27:42.695Z,5.83
2023-03-30T04:30:11.677Z,5.67
2023-03-30T04:32:41.370Z,6.90
2023-03-30T04:35:11.051Z,6.70
2023-03-30T04:37:42.006Z,6.87
2023-03-30T04:40:10.841Z,5.23
2023-03-30T04:42:39.102Z,5.20
2023-03-30T04:45:08.430Z,3.77
2023-03-30T04:47:36.884Z,5.27
2023-03-30T04:50:05.429Z,4.37
2023-03-30T04:52:33.578Z,5.03
2023-03-30T04:55:03.114Z,4.00
2023-03-30T04:57:31.795Z,3.97
2023-03-30T05:00:00.002Z,3.53
2023-03-30T05:02:28.245Z,3.47
2023-03-30T05:04:56.467Z,3.87
2023-03-30T05:07:24.631Z,4.23
2023-03-30T05:09:53.338Z,4.23
2023-03-30T05:12:22.973Z,4.50
2023-03-30T05:14:51.112Z,5.03
2023-03-30T05:17:19.327Z,3.83
2023-03-30T05:19:47.881Z,5.70
2023-03-30T05:22:17.004Z,5.30
2023-03-30T05:24:45.201Z,5.83
2023-03-30T05:27:14.573Z,6.07
2023-03-30T05:29:44.163Z,6.47
2023-03-30T05:32:12.535Z,6.57
2023-03-30T05:34:40.715Z,8.17
2023-03-30T05:37:08.932Z,7.23
2023-03-30T05:39:37.802Z,9.27
2023-03-30T05:42:07.357Z,8.87
2023-03-30T05:44:35.528Z,10.80
2023-03-30T05:47:05.096Z,9.87
2023-03-30T05:49:33.225Z,8.90
2023-03-30T05:52:01.527Z,7.97
2023-03-30T05:54:29.824Z,10.60
2023-03-30T05:56:58.233Z,7.77
2023-03-30T05:59:26.477Z,8.47
2023-03-30T06:01:56.080Z,6.27
2023-03-30T06:04:27.179Z,8.30
2023-03-30T06:06:55.764Z,8.07
2023-03-30T06:09:25.410Z,7.33
2023-03-30T06:11:53.621Z,6.50
2023-03-30T06:14:21.826Z,8.17
2023-03-30T06:16:50.094Z,9.07
2023-03-30T06:19:18.316Z,9.00
2023-03-30T06:21:47.849Z,7.40
2023-03-30T06:24:16.185Z,6.40
2023-03-30T06:26:44.369Z,7.43
2023-03-30T06:29:12.564Z,8.60
2023-03-30T06:31:41.122Z,8.90
2023-03-30T06:34:09.330Z,8.93
2023-03-30T06:36:45.044Z,9.17
2023-03-30T06:39:15.846Z,8.93
2023-03-30T06:41:44.073Z,8.33
2023-03-30T06:44:14.725Z,8.07
2023-03-30T06:46:43.381Z,7.07
2023-03-30T06:49:13.076Z,8.67
2023-03-30T06:51:41.890Z,8.40
2023-03-30T06:54:10.136Z,8.07
2023-03-30T06:56:40.040Z,7.13
2023-03-30T06:59:08.291Z,6.60
2023-03-30T07:01:37.120Z,6.53
2023-03-30T07:04:05.761Z,6.03
2023-03-30T07:06:34.748Z,5.30
2023-03-30T07:09:04.103Z,4.80
2023-03-30T07:11:32.302Z,4.17
2023-03-30T07:14:02.402Z,5.13
2023-03-30T07:16:30.737Z,5.60
2023-03-30T07:18:58.999Z,6.60
2023-03-30T07:21:27.208Z,5.50
2023-03-30T07:23:55.783Z,7.10
2023-03-30T07:26:23.949Z,6.27
2023-03-30T07:28:52.141Z,7.20
2023-03-30T07:31:21.934Z,7.90
2023-03-30T07:33:50.157Z,8.13
2023-03-30T07:36:18.804Z,7.30
2023-03-30T07:38:47.268Z,8.43
2023-03-30T07:41:17.979Z,9.10
2023-03-30T07:43:46.318Z,10.60
2023-03-30T07:46:14.707Z,9.30
2023-03-30T07:48:44.333Z,8.83
2023-03-30T07:51:13.574Z,8.93
2023-03-30T07:53:42.112Z,9.00
2023-03-30T07:56:10.520Z,8.97
2023-03-30T07:58:39.168Z,7.70
2023-03-30T08:01:08.291Z,9.93
2023-03-30T08:03:37.011Z,10.47
2023-03-30T08:06:06.765Z,10.17
2023-03-30T08:08:35.633Z,8.40
2023-03-30T08:11:03.895Z,7.57
2023-03-30T08:13:32.864Z,8.83
2023-03-30T08:16:01.309Z,7.93
2023-03-30T08:18:29.545Z,10.30
2023-03-30T08:20:57.694Z,10.47
2023-03-30T08:23:27.284Z,8.00
2023-03-30T08:25:57.980Z,7.13
2023-03-30T08:28:26.444Z,9.20
2023-03-30T08:30:55.394Z,7.10
2023-03-30T08:33:24.171Z,8.00
2023-03-30T08:35:52.465Z,7.60
2023-03-30T08:38:20.920Z,8.40
2023-03-30T08:40:51.368Z,7.27
2023-03-30T08:43:32.638Z,7.50
2023-03-30T08:46:01.048Z,6.20
2023-03-30T08:48:30.450Z,5.30
2023-03-30T08:50:59.824Z,5.60
2023-03-30T08:53:29.345Z,6.37
2023-03-30T08:56:01.795Z,5.37
2023-03-30T08:58:33.389Z,5.33
2023-03-30T09:01:04.614Z,5.27
2023-03-30T09:03:38.488Z,5.57
2023-03-30T09:06:09.993Z,5.60
2023-03-30T09:08:38.511Z,6.30
2023-03-30T09:11:12.535Z,6.73
2023-03-30T09:13:45.266Z,5.77
2023-03-30T09:16:16.493Z,6.50
2023-03-30T09:18:46.586Z,5.50
2023-03-30T09:21:15.157Z,7.07
2023-03-30T09:23:44.133Z,7.23
2023-03-30T09:26:17.389Z,4.90
2023-03-30T09:28:48.431Z,6.37
2023-03-30T09:31:21.697Z,7.00
2023-03-30T09:33:55.680Z,6.33
2023-03-30T09:36:28.017Z,7.57
2023-03-30T09:38:56.315Z,7.57
2023-03-30T09:41:35.308Z,6.27
2023-03-30T09:44:04.236Z,5.00
2023-03-30T09:46:40.466Z,5.77
2023-03-30T09:49:15.912Z,6.03
2023-03-30T09:51:57.892Z,5.90
2023-03-30T09:54:26.151Z,4.80
2023-03-30T09:56:57.267Z,5.00
2023-03-30T09:59:31.156Z,6.13
2023-03-30T10:02:12.375Z,6.33
2023-03-30T10:04:56.700Z,5.33
2023-03-30T10:07:26.440Z,4.90
2023-03-30T10:09:55.131Z,5.53
2023-03-30T10:12:26.157Z,5.57
2023-03-30T10:14:58.316Z,5.27
2023-03-30T10:17:27.374Z,5.37
2023-03-30T10:20:07.244Z,5.37
2023-03-30T10:22:49.978Z,5.30
2023-03-30T10:25:21.165Z,5.47
2023-03-30T10:27:53.519Z,6.57
2023-03-30T10:30:24.629Z,5.70
2023-03-30T10:32:53.135Z,4.10
2023-03-30T10:35:23.506Z,4.37
2023-03-30T10:37:52.480Z,5.87
2023-03-30T10:40:22.729Z,5.80
2023-03-30T10:42:55.446Z,6.10
2023-03-30T10:45:28.344Z,5.13
2023-03-30T10:48:07.267Z,5.00
2023-03-30T10:50:40.501Z,5.90
2023-03-30T10:53:15.994Z,5.50
2023-03-30T10:55:45.516Z,4.83
2023-03-30T10:58:22.079Z,6.53
2023-03-30T11:00:54.177Z,5.73
2023-03-30T11:03:24.196Z,5.47
2023-03-30T11:05:54.457Z,5.73
2023-03-30T11:08:24.777Z,4.87
2023-03-30T11:10:55.297Z,5.20
2023-03-30T11:13:26.042Z,5.07
2023-03-30T11:15:55.394Z,5.43
2023-03-30T11:18:25.769Z,5.30
2023-03-30T11:20:56.988Z,5.33
2023-03-30T11:23:28.647Z,5.30
2023-03-30T11:26:02.373Z,5.80
2023-03-30T11:28:38.478Z,6.07
2023-03-30T11:31:11.659Z,7.20
2023-03-30T11:33:45.628Z,5.50
2023-03-30T11:36:18.795Z,6.83
2023-03-30T11:38:50.758Z,6.23
2023-03-30T11:41:23.401Z,6.10
2023-03-30T11:43:55.997Z,6.67
2023-03-30T11:46:28.282Z,7.23
2023-03-30T11:49:11.534Z,5.97
2023-03-30T11:51:45.202Z,6.27
2023-03-30T11:54:26.111Z,6.20
2023-03-30T11:56:57.609Z,7.37
2023-03-30T11:59:29.948Z,7.30
2023-03-30T12:02:05.761Z,6.97
2023-03-30T12:04:38.753Z,13.13
2023-03-30T12:07:12.886Z,7.53
2023-03-30T12:09:45.911Z,13.67
2023-03-30T12:12:15.778Z,10.93
2023-03-30T12:14:54.741Z,14.13
2023-03-30T12:17:28.455Z,14.57
2023-03-30T12:19:59.594Z,16.70
2023-03-30T12:22:31.688Z,38.80
2023-03-30T12:25:02.845Z,58.00
2023-03-30T12:27:32.693Z,44.57
2023-03-30T12:30:14.257Z,48.47
2023-03-30T12:32:58.204Z,40.47
2023-03-30T12:35:44.869Z,24.13
2023-03-30T12:38:17.336Z,27.50
2023-03-30T12:40:47.442Z,45.50
2023-03-30T12:43:20.644Z,31.87
2023-03-30T12:46:02.553Z,24.93
2023-03-30T12:48:36.663Z,12.57
2023-03-30T12:51:12.804Z,24.47
2023-03-30T12:54:08.240Z,22.33
2023-03-30T12:56:39.283Z,31.13
2023-03-30T12:59:31.549Z,27.97
2023-03-30T13:02:07.605Z,12.17
2023-03-30T13:04:38.545Z,9.60
2023-03-30T13:07:08.394Z,12.73
2023-03-30T13:09:53.885Z,9.67
2023-03-30T13:12:37.886Z,5.67
2023-03-30T13:15:08.614Z,5.30
2023-03-30T13:17:51.955Z,9.43
2023-03-30T13:20:29.263Z,6.43
2023-03-30T13:23:06.778Z,6.10
2023-03-30T13:25:42.009Z,5.40
2023-03-30T13:28:28.056Z,5.57
2023-03-30T13:30:59.210Z,5.13
2023-03-30T13:33:29.113Z,6.80
2023-03-30T13:36:03.545Z,5.53
2023-03-30T13:39:00.987Z,6.23
2023-03-30T13:41:37.416Z,6.17
2023-03-30T13:44:19.562Z,6.37
2023-03-30T13:46:51.273Z,5.40
2023-03-30T13:49:26.642Z,5.93
2023-03-30T13:51:56.435Z,6.03
2023-03-30T13:54:27.434Z,6.43
2023-03-30T13:56:58.860Z,4.73
2023-03-30T13:59:30.150Z,4.97
2023-03-30T14:01:58.882Z,4.90
2023-03-30T14:04:32.062Z,4.57
2023-03-30T14:07:05.488Z,5.03
2023-03-30T14:09:33.769Z,6.93
2023-03-30T14:12:03.874Z,4.63
2023-03-30T14:14:35.586Z,5.87
2023-03-30T14:17:06.223Z,4.97
2023-03-30T14:19:36.785Z,5.47
2023-03-30T14:22:11.016Z,5.20
2023-03-30T14:24:39.313Z,5.40
2023-03-30T14:27:08.498Z,5.23
2023-03-30T14:29:45.150Z,5.93
2023-03-30T14:32:15.598Z,4.77
2023-03-30T14:34:48.668Z,5.17
2023-03-30T14:37:19.085Z,4.77
2023-03-30T14:39:50.112Z,3.97
2023-03-30T14:42:19.184Z,4.20
2023-03-30T14:44:48.336Z,5.20
2023-03-30T14:47:16.837Z,4.93
2023-03-30T14:49:47.459Z,4.90
2023-03-30T14:52:19.814Z,3.90
2023-03-30T14:55:04.257Z,4.30
2023-03-30T14:57:37.890Z,3.93
2023-03-30T15:00:21.078Z,3.90
2023-03-30T15:02:50.874Z,4.63
2023-03-30T15:05:19.375Z,4.77
2023-03-30T15:07:50.105Z,4.50
2023-03-30T15:10:25.591Z,4.03
2023-03-30T15:12:54.782Z,4.67
2023-03-30T15:15:25.747Z,4.07
2023-03-30T15:17:54.016Z,4.33
2023-03-30T15:20:22.281Z,4.33
2023-03-30T15:22:52.718Z,4.43
2023-03-30T15:25:22.309Z,4.03
2023-03-30T15:27:57.479Z,5.13
2023-03-30T15:30:29.609Z,6.33
2023-03-30T15:32:59.075Z,5.00
2023-03-30T15:35:28.953Z,4.20
2023-03-30T15:37:59.329Z,4.10
2023-03-30T15:40:29.352Z,4.90
2023-03-30T15:43:12.462Z,4.87
2023-03-30T15:45:40.893Z,4.93
2023-03-30T15:48:11.078Z,4.67
2023-03-30T15:50:39.324Z,4.47
2023-03-30T15:53:15.356Z,4.37
2023-03-30T15:55:45.762Z,4.10
2023-03-30T15:58:14.991Z,3.60
2023-03-30T16:00:43.271Z,3.20
2023-03-30T16:03:14.006Z,3.00
2023-03-30T16:05:43.730Z,4.23
2023-03-30T16:08:13.231Z,3.63
2023-03-30T16:10:41.433Z,3.70
2023-03-30T16:13:12.605Z,4.93
2023-03-30T16:15:40.884Z,3.40
2023-03-30T16:18:09.256Z,3.63
2023-03-30T16:20:37.491Z,4.27
2023-03-30T16:23:05.685Z,3.83
2023-03-30T16:25:44.862Z,4.07
2023-03-30T16:28:17.504Z,4.63
2023-03-30T16:30:46.828Z,3.70
2023-03-30T16:33:15.157Z,3.90
2023-03-30T16:35:43.446Z,3.77
2023-03-30T16:38:13.933Z,4.40
2023-03-30T16:40:44.586Z,3.80
2023-03-30T16:43:12.888Z,4.40
2023-03-30T16:45:41.140Z,4.30
2023-03-30T16:48:09.391Z,4.17
2023-03-30T16:50:38.782Z,3.83
2023-03-30T16:53:07.453Z,3.70
2023-03-30T16:55:35.631Z,3.80
2023-03-30T16:58:05.284Z,4.33
2023-03-30T17:00:34.841Z,3.57
2023-03-30T17:03:03.171Z,4.80
2023-03-30T17:05:32.023Z,2.97
2023-03-30T17:08:05.536Z,3.67
2023-03-30T17:10:35.035Z,3.67
2023-03-30T17:13:04.574Z,4.30
2023-03-30T17:15:35.385Z,4.17
2023-03-30T17:18:06.074Z,3.87
2023-03-30T17:20:36.417Z,3.60
2023-03-30T17:23:04.670Z,4.57
2023-03-30T17:25:32.973Z,4.00
2023-03-30T17:28:01.471Z,2.83
2023-03-30T17:30:31.762Z,4.00
2023-03-30T17:33:00.020Z,4.37
2023-03-30T17:35:28.736Z,3.80
2023-03-30T17:37:57.139Z,4.63
2023-03-30T17:40:27.024Z,2.97
2023-03-30T17:42:55.588Z,4.37
2023-03-30T17:45:24.962Z,4.27
2023-03-30T17:47:54.910Z,4.10
2023-03-30T17:50:24.976Z,3.20
2023-03-30T17:52:53.634Z,4.10
2023-03-30T17:55:22.322Z,4.90
2023-03-30T17:57:50.573Z,4.60
2023-03-30T18:00:23.731Z,4.47
2023-03-30T18:02:52.702Z,3.23
2023-03-30T18:05:23.195Z,4.03
2023-03-30T18:07:51.379Z,4.00
2023-03-30T18:10:24.764Z,3.20
2023-03-30T18:12:53.620Z,4.27
2023-03-30T18:15:25.323Z,4.33
2023-03-30T18:17:53.944Z,3.97
2023-03-30T18:20:29.160Z,4.23
2023-03-30T18:22:57.633Z,3.87
2023-03-30T18:25:32.677Z,4.93
2023-03-30T18:28:01.057Z,3.97
2023-03-30T18:30:30.379Z,3.90
2023-03-30T18:32:59.093Z,4.53
2023-03-30T18:35:29.874Z,4.00
2023-03-30T18:37:58.455Z,3.57
2023-03-30T18:40:27.695Z,4.40
2023-03-30T18:42:56.622Z,5.17
2023-03-30T18:45:26.785Z,4.87
2023-03-30T18:47:55.068Z,4.97
2023-03-30T18:50:24.995Z,4.67
2023-03-30T18:52:54.521Z,4.67
2023-03-30T18:55:22.693Z,4.70
2023-03-30T18:57:50.835Z,4.93
2023-03-30T19:00:21.331Z,4.60
2023-03-30T19:02:50.064Z,4.37
2023-03-30T19:05:19.443Z,4.23
2023-03-30T19:07:47.718Z,5.33
2023-03-30T19:10:18.213Z,4.87
2023-03-30T19:12:48.926Z,4.47
2023-03-30T19:15:21.598Z,5.33
2023-03-30T19:17:49.861Z,4.63
2023-03-30T19:20:18.597Z,6.10
2023-03-30T19:22:46.793Z,4.97
2023-03-30T19:25:15.540Z,4.67
2023-03-30T19:27:59.256Z,5.00
2023-03-30T19:30:32.340Z,4.87
2023-03-30T19:33:02.096Z,4.97
2023-03-30T19:35:30.582Z,5.00
2023-03-30T19:37:58.765Z,5.17
2023-03-30T19:40:27.039Z,4.63
2023-03-30T19:42:56.551Z,5.13
2023-03-30T19:45:24.733Z,4.60
2023-03-30T19:47:53.445Z,4.80
2023-03-30T19:50:24.855Z,4.93
2023-03-30T19:52:54.868Z,5.57
2023-03-30T19:55:23.372Z,6.20
2023-03-30T19:57:51.637Z,5.17
2023-03-30T20:00:21.446Z,5.43
2023-03-30T20:02:51.001Z,5.27
2023-03-30T20:05:20.683Z,5.60
2023-03-30T20:07:48.940Z,4.87
2023-03-30T20:10:18.825Z,5.90
2023-03-30T20:12:47.683Z,5.67
2023-03-30T20:15:16.319Z,5.07
2023-03-30T20:17:45.951Z,5.37
2023-03-30T20:20:16.830Z,5.13
2023-03-30T20:22:45.842Z,5.30
2023-03-30T20:25:15.496Z,4.77
2023-03-30T20:27:43.627Z,5.37
2023-03-30T20:30:12.648Z,5.77
2023-03-30T20:32:41.031Z,5.57
2023-03-30T20:35:10.849Z,5.70
2023-03-30T20:37:38.994Z,5.10
2023-03-30T20:40:09.747Z,5.13
2023-03-30T20:42:39.784Z,6.40
2023-03-30T20:45:08.929Z,5.07
2023-03-30T20:47:37.310Z,6.33
2023-03-30T20:50:06.150Z,5.50
2023-03-30T20:52:35.660Z,6.00
2023-03-30T20:55:03.842Z,5.67
2023-03-30T20:57:32.172Z,5.80
2023-03-30T21:00:01.194Z,6.10
2023-03-30T21:02:31.418Z,5.77
2023-03-30T21:04:59.776Z,5.10
2023-03-30T21:07:28.346Z,6.47
2023-03-30T21:09:57.913Z,5.13
2023-03-30T21:12:26.209Z,5.80
2023-03-30T21:14:54.512Z,5.23
2023-03-30T21:17:22.726Z,6.10
2023-03-30T21:19:50.953Z,5.10
2023-03-30T21:22:19.096Z,5.63
2023-03-30T21:24:47.228Z,6.23
2023-03-30T21:27:16.854Z,5.47
2023-03-30T21:29:45.021Z,6.57
2023-03-30T21:32:13.183Z,5.40
2023-03-30T21:34:42.749Z,4.70
2023-03-30T21:37:11.091Z,5.07
2023-03-30T21:39:39.344Z,5.33
2023-03-30T21:42:08.117Z,5.43
2023-03-30T21:44:38.022Z,4.70
2023-03-30T21:47:06.401Z,4.97
2023-03-30T21:49:37.082Z,4.80
2023-03-30T21:52:05.365Z,4.67
2023-03-30T21:54:33.513Z,4.67
2023-03-30T21:57:01.723Z,5.03
2023-03-30T21:59:29.986Z,4.43
2023-03-30T22:01:59.627Z,4.77
2023-03-30T22:04:27.809Z,4.90
2023-03-30T22:06:55.994Z,4.97
2023-03-30T22:09:24.154Z,5.30
2023-03-30T22:11:53.996Z,4.77
2023-03-30T22:14:22.316Z,5.60
2023-03-30T22:16:50.551Z,5.40
2023-03-30T22:19:22.748Z,5.27
2023-03-30T22:21:51.966Z,4.27
2023-03-30T22:24:20.711Z,4.63
2023-03-30T22:26:49.150Z,4.63
2023-03-30T22:29:20.697Z,4.40
2023-03-30T22:31:49.212Z,4.63
2023-03-30T22:34:17.460Z,4.63
2023-03-30T22:36:46.953Z,4.57
2023-03-30T22:39:16.614Z,4.53
2023-03-30T22:41:44.823Z,4.17
2023-03-30T22:44:13.124Z,4.23
2023-03-30T22:46:41.248Z,4.70
2023-03-30T22:49:09.613Z,4.20
2023-03-30T22:51:38.326Z,4.67
2023-03-30T22:54:07.978Z,4.13
2023-03-30T22:56:36.200Z,4.93
2023-03-30T22:59:04.393Z,4.67
2023-03-30T23:01:33.042Z,4.33
2023-03-30T23:04:01.799Z,4.60
2023-03-30T23:06:31.167Z,4.70
2023-03-30T23:09:01.490Z,4.63
2023-03-30T23:11:31.073Z,4.77
2023-03-30T23:14:05.395Z,4.80
2023-03-30T23:16:35.736Z,6.73
2023-03-30T23:19:04.235Z,5.77
2023-03-30T23:21:34.288Z,5.97
2023-03-30T23:24:03.205Z,5.67
2023-03-30T23:26:32.954Z,5.50
2023-03-30T23:29:01.233Z,4.90
2023-03-30T23:31:29.433Z,4.33
2023-03-30T23:51:22.235Z,3.37
2023-03-30T23:53:54.300Z,4.20
2023-03-30T23:56:25.778Z,3.63
2023-03-30T23:58:54.144Z,3.70
